createdAt,value
2018-08-23T00:02:24.420Z,23.50
2018-08-23T00:07:27.645Z,23.30
2018-08-23T00:12:43.863Z,23.30
2018-08-23T00:17:46.839Z,23.20
2018-08-23T00:22:49.824Z,23.20
2018-08-23T00:27:52.961Z,23.00
2018-08-23T00:32:56.297Z,22.80
2018-08-23T00:37:59.524Z,22.70
2018-08-23T00:43:06.884Z,22.60
2018-08-23T00:48:10.085Z,22.50
2018-08-23T00:53:13.395Z,22.40
2018-08-23T00:58:16.418Z,22.20
2018-08-23T01:03:19.384Z,22.20
2018-08-23T01:08:28.041Z,22.10
2018-08-23T01:13:31.265Z,21.90
2018-08-23T01:18:34.416Z,21.80
2018-08-23T01:23:38.371Z,21.80
2018-08-23T01:28:41.383Z,21.80
2018-08-23T01:33:45.147Z,21.90
2018-08-23T01:38:48.080Z,21.90
2018-08-23T01:43:51.196Z,21.70
2018-08-23T01:48:54.200Z,21.50
2018-08-23T01:53:57.342Z,21.40
2018-08-23T01:59:00.299Z,21.40
2018-08-23T02:04:05.364Z,21.70
2018-08-23T02:09:08.608Z,21.70
2018-08-23T02:14:11.812Z,21.60
2018-08-23T02:19:14.764Z,21.40
2018-08-23T02:24:22.436Z,21.10
2018-08-23T02:29:40.409Z,20.90
2018-08-23T02:34:45.696Z,20.80
2018-08-23T02:39:48.839Z,21.00
2018-08-23T02:44:51.908Z,21.00
2018-08-23T02:49:55.003Z,21.00
2018-08-23T02:54:58.211Z,20.90
2018-08-23T03:00:01.153Z,20.80
2018-08-23T03:05:04.196Z,20.60
2018-08-23T03:10:07.196Z,20.50
2018-08-23T03:15:10.220Z,20.40
2018-08-23T03:20:15.335Z,20.20
2018-08-23T03:25:19.870Z,20.10
2018-08-23T03:30:23.799Z,20.10
2018-08-23T03:35:27.108Z,20.10
2018-08-23T03:40:30.313Z,20.00
2018-08-23T03:45:33.343Z,19.90
2018-08-23T03:50:41.046Z,19.90
2018-08-23T03:55:49.473Z,19.80
2018-08-23T04:01:01.129Z,19.60
2018-08-23T04:06:34.808Z,19.50
2018-08-23T04:11:37.819Z,18.90
2018-08-23T04:16:40.812Z,18.80
2018-08-23T04:21:43.763Z,18.60
2018-08-23T04:26:46.920Z,18.50
2018-08-23T04:31:49.911Z,18.50
2018-08-23T04:36:53.029Z,18.60
2018-08-23T04:42:00.761Z,18.80
2018-08-23T04:47:04.880Z,18.90
2018-08-23T04:52:08.084Z,19.20
2018-08-23T04:57:11.057Z,19.40
2018-08-23T05:02:14.405Z,19.60
2018-08-23T05:07:17.435Z,19.80
2018-08-23T05:12:20.455Z,20.10
2018-08-23T05:17:23.824Z,20.30
2018-08-23T05:22:26.988Z,21.10
2018-08-23T05:27:29.975Z,22.60
2018-08-23T05:32:32.952Z,24.10
2018-08-23T05:37:36.522Z,24.60
2018-08-23T05:42:53.115Z,24.90
2018-08-23T05:47:56.085Z,25.40
2018-08-23T05:52:59.390Z,26.60
2018-08-23T05:58:17.089Z,27.10
2018-08-23T06:03:20.256Z,27.40
2018-08-23T06:08:23.545Z,28.00
2018-08-23T06:13:26.574Z,27.70
2018-08-23T06:18:29.733Z,28.30
2018-08-23T06:24:08.210Z,28.40
2018-08-23T06:29:24.173Z,29.10
2018-08-23T06:34:29.069Z,29.30
2018-08-23T06:39:32.273Z,28.70
2018-08-23T06:44:56.377Z,29.10
2018-08-23T06:49:59.580Z,29.90
2018-08-23T06:55:03.362Z,28.80
2018-08-23T07:00:06.618Z,28.00
2018-08-23T07:05:10.370Z,28.90
2018-08-23T07:10:14.060Z,30.20
2018-08-23T07:15:17.264Z,30.70
2018-08-23T07:20:20.519Z,31.40
2018-08-23T07:25:23.709Z,31.40
2018-08-23T07:30:26.869Z,31.30
2018-08-23T07:35:29.826Z,31.60
2018-08-23T07:40:32.893Z,31.50
2018-08-23T07:45:35.840Z,31.50
2018-08-23T07:50:38.999Z,31.60
2018-08-23T07:55:41.965Z,31.90
2018-08-23T08:00:45.078Z,32.00
2018-08-23T08:05:48.231Z,32.10
2018-08-23T08:10:51.473Z,32.00
2018-08-23T08:15:54.500Z,31.50
2018-08-23T08:21:00.927Z,31.80
2018-08-23T08:26:03.974Z,31.60
2018-08-23T08:31:07.136Z,31.70
2018-08-23T08:36:10.454Z,31.90
2018-08-23T08:41:13.460Z,30.90
2018-08-23T08:46:16.424Z,30.60
2018-08-23T08:51:25.051Z,31.00
2018-08-23T08:56:34.425Z,31.60
2018-08-23T09:01:37.691Z,32.30
2018-08-23T09:06:43.965Z,31.20
2018-08-23T09:11:47.140Z,31.70
2018-08-23T09:16:50.373Z,32.20
2018-08-23T09:22:00.114Z,30.80
2018-08-23T09:27:03.365Z,29.90
2018-08-23T09:32:12.771Z,29.50
2018-08-23T09:37:16.002Z,30.20
2018-08-23T09:42:19.102Z,31.00
2018-08-23T09:47:22.415Z,31.80
2018-08-23T09:52:31.958Z,31.40
2018-08-23T09:57:36.620Z,30.90
2018-08-23T10:02:45.363Z,30.40
2018-08-23T10:07:54.100Z,30.40
2018-08-23T10:13:02.939Z,29.90
2018-08-23T10:18:11.885Z,29.70
2018-08-23T10:23:21.093Z,29.60
2018-08-23T10:28:25.463Z,30.00
2018-08-23T10:33:28.409Z,29.80
2018-08-23T10:38:31.459Z,30.00
2018-08-23T10:43:39.985Z,30.30
2018-08-23T10:48:43.132Z,30.50
2018-08-23T10:53:46.315Z,30.70
2018-08-23T10:58:49.619Z,30.90
2018-08-23T11:03:52.923Z,31.20
2018-08-23T11:09:01.785Z,31.20
2018-08-23T11:14:11.035Z,31.00
2018-08-23T11:19:19.958Z,31.20
2018-08-23T11:24:23.079Z,31.00
2018-08-23T11:29:26.050Z,31.10
2018-08-23T11:34:29.183Z,31.10
2018-08-23T11:39:32.630Z,31.20
2018-08-23T11:44:35.908Z,31.30
2018-08-23T11:49:39.134Z,31.50
2018-08-23T11:54:42.531Z,31.60
2018-08-23T11:59:45.593Z,31.80
2018-08-23T12:04:48.844Z,32.00
2018-08-23T12:09:52.156Z,32.00
2018-08-23T12:14:55.294Z,32.10
2018-08-23T12:19:58.486Z,32.10
2018-08-23T12:25:01.599Z,32.10
2018-08-23T12:30:06.123Z,31.70
2018-08-23T12:35:09.347Z,32.00
2018-08-23T12:40:18.047Z,32.30
2018-08-23T12:45:21.356Z,32.00
2018-08-23T12:50:24.465Z,32.20
2018-08-23T12:55:27.477Z,32.40
2018-08-23T13:00:30.717Z,32.50
2018-08-23T13:05:34.132Z,32.40
2018-08-23T13:10:37.652Z,32.20
2018-08-23T13:15:40.891Z,32.40
2018-08-23T13:20:44.072Z,32.30
2018-08-23T13:25:52.755Z,32.30
2018-08-23T13:30:56.209Z,32.20
2018-08-23T13:35:59.496Z,32.60
2018-08-23T13:41:02.490Z,32.50
2018-08-23T13:46:05.640Z,32.40
2018-08-23T13:51:09.035Z,32.50
2018-08-23T13:56:12.096Z,32.00
2018-08-23T14:01:18.996Z,32.10
2018-08-23T14:06:24.971Z,32.00
2018-08-23T14:11:28.056Z,32.10
2018-08-23T14:16:31.259Z,32.40
2018-08-23T14:21:34.404Z,32.30
2018-08-23T14:26:37.503Z,32.20
2018-08-23T14:31:40.592Z,31.80
2018-08-23T14:36:43.690Z,31.90
2018-08-23T14:41:46.875Z,32.10
2018-08-23T14:46:55.460Z,32.00
2018-08-23T14:51:58.732Z,31.70
2018-08-23T14:57:07.541Z,31.80
2018-08-23T15:02:10.847Z,31.90
2018-08-23T15:07:14.515Z,31.60
2018-08-23T15:12:17.928Z,31.70
2018-08-23T15:17:21.087Z,31.90
2018-08-23T15:22:24.391Z,31.90
2018-08-23T15:27:31.879Z,31.80
2018-08-23T15:32:34.909Z,32.00
2018-08-23T15:37:37.967Z,32.10
2018-08-23T15:42:40.970Z,32.10
2018-08-23T15:47:43.918Z,32.00
2018-08-23T15:52:46.929Z,31.90
2018-08-23T15:57:50.890Z,31.80
2018-08-23T16:02:54.054Z,31.80
2018-08-23T16:07:57.075Z,31.60
2018-08-23T16:13:00.096Z,31.60
2018-08-23T16:18:08.949Z,31.60
2018-08-23T16:23:12.340Z,31.60
2018-08-23T16:28:15.647Z,31.50
2018-08-23T16:33:18.868Z,31.40
2018-08-23T16:38:21.933Z,31.30
2018-08-23T16:43:25.218Z,31.20
2018-08-23T16:48:28.399Z,31.20
2018-08-23T16:53:31.425Z,31.10
2018-08-23T16:58:34.654Z,31.10
2018-08-23T17:03:37.824Z,31.10
2018-08-23T17:08:41.254Z,31.00
2018-08-23T17:13:44.476Z,30.70
2018-08-23T17:18:48.727Z,30.50
2018-08-23T17:23:52.113Z,30.40
2018-08-23T17:28:55.183Z,30.40
2018-08-23T17:33:58.417Z,30.20
2018-08-23T17:39:01.732Z,29.90
2018-08-23T17:44:04.870Z,29.70
2018-08-23T17:49:07.969Z,29.50
2018-08-23T17:54:11.279Z,29.40
2018-08-23T17:59:14.661Z,29.30
2018-08-23T18:04:17.735Z,29.10
2018-08-23T18:09:20.975Z,29.00
2018-08-23T18:14:24.034Z,28.80
2018-08-23T18:19:27.914Z,28.70
2018-08-23T18:24:31.170Z,28.70
2018-08-23T18:29:34.327Z,28.50
2018-08-23T18:34:37.536Z,28.40
2018-08-23T18:39:41.269Z,28.20
2018-08-23T18:44:48.590Z,27.70
2018-08-23T18:49:51.636Z,27.10
2018-08-23T18:54:55.005Z,26.90
2018-08-23T18:59:58.319Z,26.80
2018-08-23T19:05:01.424Z,26.40
2018-08-23T19:10:04.788Z,25.90
2018-08-23T19:15:08.197Z,24.80
2018-08-23T19:20:12.735Z,24.30
2018-08-23T19:25:15.873Z,24.00
2018-08-23T19:30:18.830Z,22.80
2018-08-23T19:35:21.862Z,22.50
2018-08-23T19:40:29.042Z,22.70
2018-08-23T19:45:37.881Z,22.80
2018-08-23T19:50:41.032Z,22.80
2018-08-23T19:55:44.049Z,22.70
2018-08-23T20:00:48.619Z,22.70
2018-08-23T20:05:51.629Z,22.80
2018-08-23T20:10:54.785Z,22.70
2018-08-23T20:15:58.291Z,22.70
2018-08-23T20:21:01.447Z,22.50
2018-08-23T20:26:04.514Z,22.40
2018-08-23T20:31:07.936Z,22.40
2018-08-23T20:36:10.974Z,22.40
2018-08-23T20:41:14.041Z,22.50
2018-08-23T20:46:17.082Z,22.70
2018-08-23T20:51:20.171Z,22.80
2018-08-23T20:56:23.261Z,22.80
2018-08-23T21:01:26.852Z,22.70
2018-08-23T21:06:30.043Z,22.60
2018-08-23T21:11:33.181Z,22.60
2018-08-23T21:16:36.303Z,22.70
2018-08-23T21:21:39.611Z,22.30
2018-08-23T21:26:42.608Z,22.30
2018-08-23T21:31:45.617Z,22.40
2018-08-23T21:36:48.613Z,22.40
2018-08-23T21:41:51.673Z,22.50
2018-08-23T21:46:55.688Z,22.50
2018-08-23T21:51:58.676Z,22.60
2018-08-23T21:57:01.867Z,22.70
2018-08-23T22:02:10.814Z,22.90
2018-08-23T22:07:13.852Z,23.00
2018-08-23T22:12:18.708Z,23.00
2018-08-23T22:17:22.214Z,22.90
2018-08-23T22:22:25.227Z,22.80
2018-08-23T22:27:28.361Z,22.70
2018-08-23T22:32:31.387Z,22.80
2018-08-23T22:37:34.621Z,22.70
2018-08-23T22:42:37.708Z,22.70
2018-08-23T22:47:40.840Z,22.70
2018-08-23T22:52:43.842Z,22.60
2018-08-23T22:57:47.037Z,22.40
2018-08-23T23:02:50.135Z,22.40
2018-08-23T23:07:53.091Z,22.40
2018-08-23T23:12:56.064Z,22.20
2018-08-23T23:17:59.248Z,22.00
2018-08-23T23:23:02.863Z,21.80
2018-08-23T23:28:06.082Z,21.80
2018-08-23T23:33:09.036Z,21.70
2018-08-23T23:38:12.284Z,21.60
2018-08-23T23:43:15.271Z,21.60
2018-08-23T23:48:18.367Z,21.40
2018-08-23T23:53:21.605Z,21.30
2018-08-23T23:58:24.775Z,21.20
